Henrik Krøyer Holme

KL  EN  DA
ASIAQ
Weather Now GREENLAND SURVEY
Updated [WGT/WGST] Temperature [°C] Wind [m/s] Air pressure [hPa] Relative humidity [%] Precipitation [mm]
Present Wind chill Speed Max
24.09 01:00-6,1-16,112,9 ⇘17,0100763n/a
24.09 00:00-5,4-15,915,4 ⇘21,6100761n/a
23.09 23:00-5,7-16,516,0 ⇘21,6100763n/a
23.09 22:00-5,8-16,415,4 ⇘19,6100766n/a
23.09 21:00-5,8-16,314,9 ⇘21,1100767n/a
23.09 20:00-5,8-16,415,4 ⇘18,5100768n/a
23.09 19:00-5,8-15,913,4 ⇓17,0100869n/a
23.09 18:00-5,4-16,116,0 ⇓20,6100765n/a
23.09 17:00-5,7-16,014,4 ⇓18,5100868n/a
23.09 16:00-5,7-16,014,4 ⇓18,5100868n/a
23.09 15:00-4,7-13,410,3 ⇘13,9100965n/a
23.09 14:00-4,6-12,99,3 ⇘14,4100968n/a
23.09 13:00-4,4-13,311,3 ⇘15,4100973n/a
23.09 12:00-5,1-14,311,3 ⇘15,4101073n/a
23.09 11:00-4,6-11,97,2 ⇘10,8101073n/a
23.09 10:00-3,9-11,37,7 ⇘10,3101167n/a
23.09 09:00-3,5-11,28,8 ⇓12,4101068n/a
23.09 08:00-3,5-12,111,3 ⇓15,4101069n/a
23.09 07:00-3,7-11,58,8 ⇓11,3101169n/a
23.09 06:00-4,0-11,68,2 ⇓10,8101170n/a
23.09 05:00-4,4-12,18,2 ⇓11,3101172n/a
23.09 04:00-4,5-12,38,2 ⇘10,3101276n/a
23.09 03:00-4,9-14,713,4 ⇓17,0101279n/a
23.09 02:00-4,7-14,413,4 ⇓18,5101280n/a
23.09 01:00-5,1-15,214,4 ⇓20,1101280n/a
Position: (80.649444444,-13.7119444444)

[Back]